LESO/EAS METAR and TAF weather

Enter ICAO airport designator
Station Type Date Time Source
LESO METAR 2021/05/12 01:30 UTC NOAA

LESO 120130Z AUTO VRB02KT CAVOK 12/08 Q1014


Station Type Date Time Source
LESO Decoded METAR 2021/05/12 01:30 UTC NOAA

San Sebastian / Fuenterrabia, Spain (LESO) 43-21N 001-48W 8M
May 11, 2021 - 09:30 PM EDT / 2021.05.12 0130 UTC
Wind: Variable at 2 MPH (2 KT):0
Visibility: greater than 7 mile(s):0
Temperature: 53 F (12 C)
Dew Point: 46 F (8 C)
Relative Humidity: 76%
Pressure (altimeter): 29.94 in. Hg (1014 hPa)
ob: LESO 120130Z AUTO VRB02KT CAVOK 12/08 Q1014
cycle: 1

Station Type Date Time Source
LESO TAF 2021/05/11 18:27 UTC NOAA

TAF LESO 111700Z 1118/1218 34005KT 9999 SCT040 TX20/1212Z TN10/1205Z
TEMPO 1200/1212 21010KT
TEMPO 1208/1212 22015G25KT
TEMPO 1210/1218 30019G34KT 3000 RA

Example: see airport list